Terminal Aerodrome Forecast
Issued by NWS

Home | Current Version | Previous Version | Text Only | Print | Product List | Glossary On
Versions: 1 2 3 4 5 6 7 8 9 10 11 12 13 14 15 16 17 18 19 20 21 22
000
FTUS42 KJAX 211100
TAFVQQ
TAF
KVQQ 211120Z 2112/2212 35007KT P6SM BKN025
      TEMPO 2115/2118 SCT030
     FM211800 01011G16KT P6SM SCT030
     FM212100 04008KT P6SM SCT045
     FM220200 VRB05KT P6SM SKC=

USA.gov is the U.S. government's official web portal to all federal, state and local government web resources and services.